Terminal Aerodrome Forecast
Issued by NWS Dodge City, KS

Home | Current Version | Previous Version | Text Only | Print | Product List | Glossary On
Versions: 1 2 3 4 5 6 7 8 9 10 11 12 13 14 15 16 17 18
000
FTUS43 KDDC 081140
TAFDDC
TAF
KDDC 081140Z 0812/0912 31009KT P6SM BKN090
     FM081600 34022G32KT P6SM FEW250
     FM090000 33009KT P6SM SCT250=

USA.gov is the U.S. government's official web portal to all federal, state and local government web resources and services.